TimePST,TemperatureF,Dew PointF,Humidity,Sea Level PressureIn,VisibilityMPH,Wind Direction,Wind SpeedMPH,Gust SpeedMPH,PrecipitationIn,Events,Conditions,WindDirDegrees,DateUTC
12:53 AM,-4.0,-9.9,76,30.64,10.0,South,16.1,-,N/A,,Clear,170,2013-12-10 08:53:00
1:53 AM,-2.0,-9.0,72,30.62,10.0,South,16.1,-,N/A,,Clear,170,2013-12-10 09:53:00
2:53 AM,-4.0,-9.9,76,30.61,10.0,South,15.0,-,N/A,,Clear,170,2013-12-10 10:53:00
3:53 AM,-2.9,-8.0,79,30.61,10.0,South,16.1,-,N/A,,Clear,170,2013-12-10 11:53:00
4:53 AM,-4.0,-9.0,79,30.63,10.0,South,16.1,-,N/A,,Clear,170,2013-12-10 12:53:00
5:53 AM,1.0,-4.0,79,30.59,10.0,South,15.0,-,N/A,,Clear,170,2013-12-10 13:53:00
6:53 AM,1.9,-2.9,80,30.61,10.0,South,12.7,-,N/A,,Clear,170,2013-12-10 14:53:00
7:53 AM,5.0,-0.9,76,30.61,10.0,South,16.1,-,N/A,,Clear,180,2013-12-10 15:53:00
8:53 AM,14.0,5.0,67,30.58,10.0,South,10.4,-,N/A,,Clear,190,2013-12-10 16:53:00
9:53 AM,19.9,8.1,60,30.56,10.0,South,8.1,-,N/A,,Clear,170,2013-12-10 17:53:00
10:53 AM,26.1,10.9,53,30.48,10.0,South,11.5,-,N/A,,Clear,170,2013-12-10 18:53:00
11:53 AM,32.0,14.0,48,30.40,10.0,South,8.1,-,N/A,,Clear,170,2013-12-10 19:53:00
12:53 PM,37.0,12.9,37,30.38,10.0,SE,3.5,-,N/A,,Clear,130,2013-12-10 20:53:00
1:53 PM,39.9,12.0,32,30.35,10.0,WNW,5.8,-,N/A,,Clear,300,2013-12-10 21:53:00
2:53 PM,36.0,16.0,44,30.38,10.0,West,8.1,-,N/A,,Clear,280,2013-12-10 22:53:00
3:53 PM,30.0,15.1,54,30.39,10.0,NNE,3.5,-,N/A,,Clear,20,2013-12-10 23:53:00
4:53 PM,28.0,12.0,51,30.42,10.0,WNW,5.8,-,N/A,,Clear,290,2013-12-11 00:53:00
5:53 PM,16.0,8.1,71,30.45,10.0,South,6.9,-,N/A,,Clear,170,2013-12-11 01:53:00
6:53 PM,12.9,7.0,77,30.47,10.0,SSE,12.7,-,N/A,,Clear,160,2013-12-11 02:53:00
7:53 PM,12.9,7.0,77,30.48,10.0,South,11.5,-,N/A,,Clear,170,2013-12-11 03:53:00
8:53 PM,8.1,3.0,80,30.49,10.0,South,8.1,-,N/A,,Unknown,180,2013-12-11 04:53:00
9:53 PM,3.9,-0.0,84,30.49,10.0,South,9.2,-,N/A,,Clear,180,2013-12-11 05:53:00
10:53 PM,1.9,-0.9,88,30.48,10.0,South,10.4,-,N/A,,Clear,170,2013-12-11 06:53:00
11:53 PM,5.0,1.0,84,30.43,10.0,South,15.0,-,N/A,,Clear,170,2013-12-11 07:53:00